createdAt,value
2019-02-28T00:01:32.792Z,33.33
2019-02-28T00:03:40.442Z,33.73
2019-02-28T00:05:48.155Z,32.27
2019-02-28T00:07:55.942Z,32.23
2019-02-28T00:10:03.552Z,34.17
2019-02-28T00:12:13.515Z,34.13
2019-02-28T00:14:20.472Z,33.30
2019-02-28T00:16:28.116Z,33.13
2019-02-28T00:18:35.801Z,33.83
2019-02-28T00:20:43.430Z,34.63
2019-02-28T00:22:51.044Z,32.67
2019-02-28T00:25:01.213Z,34.50
2019-02-28T00:27:07.991Z,31.67
2019-02-28T00:29:15.521Z,32.77
2019-02-28T00:31:23.117Z,36.53
2019-02-28T00:33:30.955Z,35.83
2019-02-28T00:35:39.238Z,32.83
2019-02-28T00:37:46.927Z,33.43
2019-02-28T00:39:54.629Z,32.20
2019-02-28T00:42:02.272Z,32.20
2019-02-28T00:44:10.013Z,31.83
2019-02-28T00:46:20.522Z,30.07
2019-02-28T00:48:27.940Z,32.40
2019-02-28T00:50:35.389Z,29.23
2019-02-28T00:52:43.048Z,31.93
2019-02-28T00:54:50.832Z,29.00
2019-02-28T00:56:58.463Z,31.40
2019-02-28T00:59:06.129Z,29.53
2019-02-28T01:01:13.798Z,30.47
2019-02-28T01:03:26.501Z,29.83
2019-02-28T01:05:30.846Z,30.23
2019-02-28T01:07:38.371Z,30.03
2019-02-28T01:09:45.973Z,30.50
2019-02-28T01:11:53.730Z,30.67
2019-02-28T01:14:02.351Z,30.37
2019-02-28T01:16:10.182Z,28.90
2019-02-28T01:18:17.941Z,28.87
2019-02-28T01:20:25.735Z,28.03
2019-02-28T01:22:33.489Z,30.40
2019-02-28T01:24:41.302Z,29.13
2019-02-28T01:26:48.926Z,29.07
2019-02-28T01:29:01.508Z,29.30
2019-02-28T01:31:05.491Z,28.97
2019-02-28T01:33:12.555Z,27.87
2019-02-28T01:35:19.562Z,27.80
2019-02-28T01:37:26.824Z,28.70
2019-02-28T01:39:33.971Z,30.13
2019-02-28T01:41:42.342Z,29.07
2019-02-28T01:43:50.017Z,27.80
2019-02-28T01:45:57.005Z,29.03
2019-02-28T01:48:04.745Z,27.70
2019-02-28T01:50:12.900Z,27.13
2019-02-28T01:52:20.709Z,27.57
2019-02-28T01:54:28.505Z,27.77
2019-02-28T01:56:36.991Z,27.27
2019-02-28T01:58:47.697Z,27.87
2019-02-28T02:00:57.404Z,27.43
2019-02-28T02:03:03.987Z,27.57
2019-02-28T02:05:11.222Z,26.70
2019-02-28T02:07:18.252Z,25.77
2019-02-28T02:09:25.964Z,26.20
2019-02-28T02:11:33.724Z,27.83
2019-02-28T02:13:41.417Z,25.53
2019-02-28T02:15:51.278Z,26.57
2019-02-28T02:17:58.462Z,26.10
2019-02-28T02:20:06.555Z,25.97
2019-02-28T02:22:14.197Z,25.50
2019-02-28T02:24:24.389Z,25.10
2019-02-28T02:26:31.165Z,25.20
2019-02-28T02:28:39.035Z,24.43
2019-02-28T02:30:50.518Z,24.83
2019-02-28T02:32:56.199Z,25.47
2019-02-28T02:35:08.132Z,24.00
2019-02-28T02:37:13.126Z,25.93
2019-02-28T02:39:20.836Z,25.00
2019-02-28T02:41:33.387Z,24.87
2019-02-28T02:43:37.748Z,23.73
2019-02-28T02:45:45.552Z,25.67
2019-02-28T02:47:53.047Z,24.30
2019-02-28T02:50:00.693Z,24.83
2019-02-28T02:52:08.459Z,24.23
2019-02-28T02:54:19.655Z,23.60
2019-02-28T02:56:25.421Z,24.13
2019-02-28T02:58:33.102Z,24.90
2019-02-28T03:00:40.798Z,25.23
2019-02-28T03:02:48.456Z,25.20
2019-02-28T03:04:58.464Z,24.17
2019-02-28T03:07:05.534Z,23.47
2019-02-28T03:09:13.327Z,23.10
2019-02-28T03:11:24.744Z,24.40
2019-02-28T03:13:30.125Z,23.73
2019-02-28T03:15:37.932Z,24.50
2019-02-28T03:17:47.497Z,23.73
2019-02-28T03:19:55.031Z,22.63
2019-02-28T03:22:02.627Z,24.17
2019-02-28T03:24:14.641Z,22.60
2019-02-28T03:26:19.578Z,23.80
2019-02-28T03:28:28.165Z,23.13
2019-02-28T03:30:36.910Z,22.13
2019-02-28T03:32:44.700Z,23.43
2019-02-28T03:34:58.065Z,23.63
2019-02-28T03:37:02.771Z,22.33
2019-02-28T03:39:10.850Z,22.40
2019-02-28T03:41:18.482Z,22.97
2019-02-28T03:43:26.261Z,25.23
2019-02-28T03:45:35.256Z,22.67
2019-02-28T03:47:43.032Z,23.77
2019-02-28T03:49:50.823Z,21.93
2019-02-28T03:52:05.394Z,22.60
2019-02-28T03:54:08.062Z,22.07
2019-02-28T03:56:16.073Z,21.67
2019-02-28T03:58:24.113Z,21.80
2019-02-28T04:00:34.012Z,22.37
2019-02-28T04:02:41.669Z,21.57
2019-02-28T04:04:50.452Z,21.93
2019-02-28T04:06:58.308Z,21.33
2019-02-28T04:09:08.894Z,21.50
2019-02-28T04:11:16.795Z,22.27
2019-02-28T04:13:24.247Z,20.60
2019-02-28T04:15:31.872Z,20.83
2019-02-28T04:17:39.685Z,20.63
2019-02-28T04:19:47.295Z,20.73
2019-02-28T04:21:55.042Z,21.30
2019-02-28T04:24:02.816Z,20.90
2019-02-28T04:26:10.590Z,21.13
2019-02-28T04:28:19.060Z,21.97
2019-02-28T04:30:26.829Z,20.37
2019-02-28T04:32:34.623Z,21.47
2019-02-28T04:34:42.300Z,20.23
2019-02-28T04:36:50.020Z,21.00
2019-02-28T04:38:57.908Z,21.27
2019-02-28T04:41:05.523Z,20.33
2019-02-28T04:43:13.152Z,20.97
2019-02-28T04:45:23.306Z,19.97
2019-02-28T04:47:30.245Z,22.17
2019-02-28T04:49:37.961Z,20.43
2019-02-28T04:51:45.340Z,20.43
2019-02-28T04:53:52.948Z,20.80
2019-02-28T04:56:01.514Z,21.43
2019-02-28T04:58:09.190Z,22.03
2019-02-28T05:00:16.916Z,21.47
2019-02-28T05:02:24.524Z,21.67
2019-02-28T05:04:33.222Z,20.77
2019-02-28T05:06:41.515Z,31.90
2019-02-28T05:08:49.201Z,22.27
2019-02-28T05:10:57.002Z,21.87
2019-02-28T05:13:04.772Z,21.00
2019-02-28T05:15:12.968Z,21.30
2019-02-28T05:17:22.282Z,21.07
2019-02-28T05:19:32.269Z,21.43
2019-02-28T05:21:39.511Z,22.27
2019-02-28T05:23:47.231Z,21.93
2019-02-28T05:25:55.023Z,21.43
2019-02-28T05:28:02.721Z,21.97
2019-02-28T05:30:18.100Z,22.27
2019-02-28T05:32:22.422Z,22.40
2019-02-28T05:34:30.115Z,21.07
2019-02-28T05:36:38.803Z,21.73
2019-02-28T05:38:46.670Z,21.10
2019-02-28T05:40:55.524Z,26.27
2019-02-28T05:43:03.183Z,45.07
2019-02-28T05:45:14.493Z,24.73
2019-02-28T05:47:20.870Z,22.63
2019-02-28T05:49:28.526Z,24.60
2019-02-28T05:51:36.218Z,22.80
2019-02-28T05:53:43.891Z,23.63
2019-02-28T05:55:51.617Z,25.73
2019-02-28T05:57:59.236Z,24.57
2019-02-28T06:00:07.579Z,27.13
2019-02-28T06:02:15.353Z,23.33
2019-02-28T06:04:23.259Z,23.23
2019-02-28T06:06:31.003Z,22.53
2019-02-28T06:08:39.155Z,21.50
2019-02-28T06:10:47.752Z,21.87
2019-02-28T06:12:55.606Z,21.63
2019-02-28T06:15:03.809Z,20.93
2019-02-28T06:17:11.763Z,21.43
2019-02-28T06:19:20.315Z,21.13
2019-02-28T06:21:28.069Z,21.03
2019-02-28T06:23:36.247Z,19.60
2019-02-28T06:25:44.124Z,20.70
2019-02-28T06:27:52.050Z,21.63
2019-02-28T06:30:08.750Z,20.30
2019-02-28T06:32:27.385Z,21.50
2019-02-28T06:34:46.028Z,20.20
2019-02-28T06:36:54.081Z,20.80
2019-02-28T06:39:01.730Z,21.70
2019-02-28T06:41:09.908Z,20.37
2019-02-28T06:43:18.742Z,21.47
2019-02-28T06:45:26.983Z,25.57
2019-02-28T06:47:34.644Z,31.87
2019-02-28T06:49:42.274Z,31.27
2019-02-28T06:51:51.334Z,21.23
2019-02-28T06:53:59.786Z,20.03
2019-02-28T06:56:07.631Z,22.07
2019-02-28T06:58:15.267Z,25.10
2019-02-28T07:00:22.908Z,31.27
2019-02-28T07:02:31.428Z,28.53
2019-02-28T07:04:40.040Z,24.50
2019-02-28T07:06:47.876Z,23.00
2019-02-28T07:08:55.971Z,22.97
2019-02-28T07:11:03.870Z,20.27
2019-02-28T07:13:11.938Z,20.33
2019-02-28T07:15:23.296Z,20.03
2019-02-28T07:17:29.273Z,20.10
2019-02-28T07:19:37.133Z,19.03
2019-02-28T07:21:44.794Z,18.43
2019-02-28T07:23:53.322Z,20.90
2019-02-28T07:26:01.076Z,19.13
2019-02-28T07:28:08.920Z,21.13
2019-02-28T07:30:18.538Z,23.27
2019-02-28T07:32:26.713Z,25.40
2019-02-28T07:34:34.408Z,21.40
2019-02-28T07:36:44.756Z,21.43
2019-02-28T07:38:51.400Z,23.40
2019-02-28T07:40:59.368Z,23.20
2019-02-28T07:43:12.003Z,24.53
2019-02-28T07:45:16.939Z,25.57
2019-02-28T07:47:25.464Z,25.50
2019-02-28T07:49:36.781Z,22.83
2019-02-28T07:51:42.907Z,21.10
2019-02-28T07:53:50.443Z,20.73
2019-02-28T07:55:58.219Z,20.70
2019-02-28T07:58:06.045Z,20.57
2019-02-28T08:00:19.570Z,20.53
2019-02-28T08:02:27.269Z,19.03
2019-02-28T08:04:35.028Z,20.90
2019-02-28T08:06:42.785Z,22.13
2019-02-28T08:08:50.569Z,19.57
2019-02-28T08:10:58.505Z,19.73
2019-02-28T08:13:06.396Z,19.33
2019-02-28T08:15:22.277Z,19.33
2019-02-28T08:17:30.551Z,19.93
2019-02-28T08:19:38.399Z,20.17
2019-02-28T08:21:50.197Z,20.33
2019-02-28T08:23:55.440Z,20.30
2019-02-28T08:26:03.127Z,24.63
2019-02-28T08:28:10.870Z,19.63
2019-02-28T08:30:20.728Z,21.00
2019-02-28T08:32:28.577Z,21.47
2019-02-28T08:34:36.495Z,23.07
2019-02-28T08:36:46.897Z,20.47
2019-02-28T08:38:53.487Z,22.80
2019-02-28T08:41:01.186Z,23.50
2019-02-28T08:43:10.560Z,21.50
2019-02-28T08:45:18.360Z,24.40
2019-02-28T08:47:26.180Z,22.63
2019-02-28T08:49:34.012Z,22.00
2019-02-28T08:51:43.232Z,24.57
2019-02-28T08:53:52.187Z,23.40
2019-02-28T08:56:00.005Z,24.10
2019-02-28T08:58:07.832Z,23.60
2019-02-28T09:00:18.238Z,21.80
2019-02-28T09:02:26.043Z,22.27
2019-02-28T09:04:40.961Z,25.17
2019-02-28T09:06:43.101Z,22.77
2019-02-28T09:08:50.839Z,21.27
2019-02-28T09:10:58.672Z,22.10
2019-02-28T09:13:08.615Z,22.33
2019-02-28T09:15:17.417Z,24.23
2019-02-28T09:17:25.217Z,22.10
2019-02-28T09:19:36.153Z,23.30
2019-02-28T09:21:42.434Z,22.10
2019-02-28T09:23:50.238Z,22.30
2019-02-28T09:25:58.186Z,21.57
2019-02-28T09:28:05.990Z,22.13
2019-02-28T09:30:35.519Z,24.97
2019-02-28T09:32:40.107Z,22.93
2019-02-28T09:34:47.883Z,22.90
2019-02-28T09:36:56.811Z,24.60
2019-02-28T09:39:05.734Z,25.23
2019-02-28T09:41:13.511Z,25.03
2019-02-28T09:43:23.949Z,25.07
2019-02-28T09:45:30.974Z,24.33
2019-02-28T09:47:38.659Z,24.70
2019-02-28T09:49:47.159Z,25.57
2019-02-28T09:51:55.798Z,23.97
2019-02-28T09:54:03.581Z,24.23
2019-02-28T09:56:11.373Z,22.50
2019-02-28T09:58:19.291Z,24.27
2019-02-28T10:00:27.751Z,23.00
2019-02-28T10:02:35.532Z,28.23
2019-02-28T10:04:45.392Z,25.90
2019-02-28T10:06:53.095Z,26.03
2019-02-28T10:09:00.908Z,26.10
2019-02-28T10:11:08.440Z,26.33
2019-02-28T10:13:18.294Z,26.63
2019-02-28T10:15:26.176Z,28.30
2019-02-28T10:17:33.912Z,24.70
2019-02-28T10:19:45.793Z,27.20
2019-02-28T10:21:52.169Z,26.03
2019-02-28T10:24:00.026Z,25.67
2019-02-28T10:26:07.891Z,26.60
2019-02-28T10:28:15.560Z,26.00
2019-02-28T10:30:31.293Z,25.27
2019-02-28T10:32:33.326Z,25.50
2019-02-28T10:34:41.264Z,26.07
2019-02-28T10:36:49.032Z,27.80
2019-02-28T10:38:56.863Z,25.17
2019-02-28T10:41:04.711Z,26.60
2019-02-28T10:43:15.479Z,24.93
2019-02-28T10:45:22.048Z,24.27
2019-02-28T10:47:29.850Z,24.97
2019-02-28T10:49:37.577Z,24.30
2019-02-28T10:51:49.590Z,23.83
2019-02-28T10:53:54.954Z,24.67
2019-02-28T10:56:02.540Z,24.03
2019-02-28T10:58:12.423Z,24.23
2019-02-28T11:00:32.780Z,26.97
2019-02-28T11:02:40.283Z,25.60
2019-02-28T11:04:48.104Z,25.50
2019-02-28T11:06:55.801Z,24.83
2019-02-28T11:09:04.636Z,25.03
2019-02-28T11:11:12.493Z,24.97
2019-02-28T11:13:21.006Z,24.77
2019-02-28T11:15:29.031Z,23.43
2019-02-28T11:17:36.676Z,23.60
2019-02-28T11:19:44.434Z,24.63
2019-02-28T11:21:52.233Z,23.50
2019-02-28T11:23:59.729Z,23.50
2019-02-28T11:26:09.514Z,23.50
2019-02-28T11:28:17.253Z,23.90
2019-02-28T11:30:26.082Z,22.97
2019-02-28T11:32:33.779Z,22.37
2019-02-28T11:34:41.652Z,22.27
2019-02-28T11:36:49.411Z,21.30
2019-02-28T11:38:57.179Z,23.33
2019-02-28T11:41:05.111Z,22.07
2019-02-28T11:43:13.193Z,23.20
2019-02-28T11:45:25.318Z,23.93
2019-02-28T11:47:32.627Z,24.43
2019-02-28T11:49:40.471Z,24.13
2019-02-28T11:51:49.410Z,24.13
2019-02-28T11:53:57.764Z,23.87
2019-02-28T11:56:05.859Z,24.10
2019-02-28T11:58:17.732Z,25.47
2019-02-28T12:00:27.706Z,26.43
2019-02-28T12:02:35.812Z,25.33
2019-02-28T12:04:43.543Z,24.67
2019-02-28T12:06:51.160Z,26.03
2019-02-28T12:08:58.786Z,26.87
2019-02-28T12:11:06.713Z,25.83
2019-02-28T12:13:16.472Z,27.47
2019-02-28T12:15:25.392Z,26.70
2019-02-28T12:17:33.184Z,25.17
2019-02-28T12:19:41.003Z,26.77
2019-02-28T12:21:48.695Z,27.27
2019-02-28T12:23:57.363Z,26.97
2019-02-28T12:26:05.825Z,27.47
2019-02-28T12:28:13.473Z,26.77
2019-02-28T12:30:25.200Z,26.47
2019-02-28T12:32:33.371Z,27.53
2019-02-28T12:34:41.053Z,27.80
2019-02-28T12:36:49.451Z,27.13
2019-02-28T12:38:59.338Z,26.50
2019-02-28T12:41:07.374Z,27.03
2019-02-28T12:43:15.251Z,24.40
2019-02-28T12:45:27.007Z,26.23
2019-02-28T12:47:35.587Z,26.13
2019-02-28T12:49:43.357Z,27.47
2019-02-28T12:51:51.076Z,27.67
2019-02-28T12:53:59.241Z,26.23
2019-02-28T12:56:07.539Z,22.43
2019-02-28T12:58:15.710Z,23.83
2019-02-28T13:00:41.365Z,22.87
2019-02-28T13:02:49.143Z,23.80
2019-02-28T13:04:56.960Z,28.10
2019-02-28T13:07:04.576Z,26.40
2019-02-28T13:09:13.693Z,27.87
2019-02-28T13:11:22.205Z,28.27
2019-02-28T13:13:29.919Z,26.73
2019-02-28T13:15:38.086Z,29.13
2019-02-28T13:17:46.092Z,27.67
2019-02-28T13:19:56.640Z,33.70
2019-02-28T13:22:03.594Z,37.20
2019-02-28T13:24:11.302Z,34.10
2019-02-28T13:26:19.254Z,35.53
2019-02-28T13:28:27.116Z,32.00
2019-02-28T13:30:34.826Z,30.90
2019-02-28T13:32:42.629Z,38.17
2019-02-28T13:34:50.598Z,71.27
2019-02-28T13:37:01.740Z,46.90
2019-02-28T13:39:10.057Z,44.50
2019-02-28T13:41:18.377Z,45.80
2019-02-28T13:43:27.203Z,33.87
2019-02-28T13:45:34.897Z,32.87
2019-02-28T13:47:46.293Z,33.00
2019-02-28T13:49:52.225Z,34.60
2019-02-28T13:52:00.003Z,52.27
2019-02-28T13:54:07.904Z,44.73
2019-02-28T13:56:15.582Z,47.07
2019-02-28T13:58:23.398Z,40.30
2019-02-28T14:00:31.733Z,38.97
2019-02-28T14:02:39.570Z,32.60
2019-02-28T14:04:47.498Z,35.77
2019-02-28T14:06:56.733Z,33.90
2019-02-28T14:09:06.559Z,28.33
2019-02-28T14:11:14.739Z,28.97
2019-02-28T14:13:23.441Z,34.17
2019-02-28T14:15:38.776Z,32.73
2019-02-28T14:17:46.652Z,31.30
2019-02-28T14:19:54.991Z,28.93
2019-02-28T14:22:02.727Z,29.10
2019-02-28T14:24:10.846Z,30.90
2019-02-28T14:26:18.897Z,30.60
2019-02-28T14:28:27.337Z,30.40
2019-02-28T14:30:36.380Z,30.50
2019-02-28T14:32:45.542Z,33.70
2019-02-28T14:34:53.433Z,32.20
2019-02-28T14:37:02.442Z,38.67
2019-02-28T14:39:14.193Z,33.70
2019-02-28T14:41:24.651Z,32.20
2019-02-28T14:43:32.865Z,32.23
2019-02-28T14:45:43.793Z,30.33
2019-02-28T14:47:56.827Z,31.63
2019-02-28T14:50:02.659Z,32.97
2019-02-28T14:52:10.333Z,32.57
2019-02-28T14:54:18.506Z,34.57
2019-02-28T14:56:26.326Z,33.60
2019-02-28T14:58:34.192Z,33.50
2019-02-28T15:00:43.465Z,35.87
2019-02-28T15:02:51.535Z,31.93
2019-02-28T15:04:59.432Z,32.03
2019-02-28T15:07:07.311Z,30.17
2019-02-28T15:09:19.727Z,30.33
2019-02-28T15:11:27.683Z,29.50
2019-02-28T15:13:35.563Z,31.60
2019-02-28T15:15:43.468Z,31.57
2019-02-28T15:17:51.655Z,32.60
2019-02-28T15:19:59.681Z,28.90
2019-02-28T15:22:07.384Z,31.83
2019-02-28T15:24:15.309Z,34.43
2019-02-28T15:26:23.427Z,29.40
2019-02-28T15:28:31.119Z,37.47
2019-02-28T15:30:39.465Z,33.23
2019-02-28T15:32:50.595Z,32.83
2019-02-28T15:35:05.317Z,32.00
2019-02-28T15:37:20.864Z,29.17
2019-02-28T15:39:33.014Z,30.13
2019-02-28T15:41:45.785Z,32.57
2019-02-28T15:44:01.139Z,34.67
2019-02-28T15:46:12.026Z,33.03
2019-02-28T15:48:21.365Z,42.33
2019-02-28T15:50:30.958Z,30.97
2019-02-28T15:52:39.414Z,39.27
2019-02-28T15:54:50.414Z,36.63
2019-02-28T15:57:04.668Z,41.57
2019-02-28T15:59:14.772Z,30.27
2019-02-28T16:01:25.269Z,30.73
2019-02-28T16:03:33.923Z,27.47
2019-02-28T16:05:44.061Z,28.17
2019-02-28T16:07:52.137Z,32.30
2019-02-28T16:10:00.333Z,29.17
2019-02-28T16:12:08.896Z,28.10
2019-02-28T16:14:17.461Z,31.03
2019-02-28T16:16:26.811Z,28.73
2019-02-28T16:18:35.327Z,27.57
2019-02-28T16:20:43.287Z,28.33
2019-02-28T16:22:53.283Z,26.80
2019-02-28T16:25:01.947Z,29.07
2019-02-28T16:27:10.267Z,51.90
2019-02-28T16:29:20.608Z,56.40
2019-02-28T16:31:29.364Z,30.20
2019-02-28T16:33:38.610Z,26.27
2019-02-28T16:35:50.258Z,25.43
2019-02-28T16:37:58.859Z,27.00
2019-02-28T16:40:08.662Z,25.77
2019-02-28T16:42:17.914Z,25.80
2019-02-28T16:44:27.590Z,26.43
2019-02-28T16:46:36.296Z,26.13
2019-02-28T16:48:44.462Z,25.87
2019-02-28T16:50:53.774Z,26.13
2019-02-28T16:53:02.255Z,29.47
2019-02-28T16:55:10.502Z,24.43
2019-02-28T16:57:18.380Z,25.80
2019-02-28T16:59:28.404Z,24.40
2019-02-28T17:01:36.405Z,24.53
2019-02-28T17:03:45.729Z,25.60
2019-02-28T17:05:53.711Z,24.73
2019-02-28T17:08:02.150Z,24.50
2019-02-28T17:10:12.858Z,25.53
2019-02-28T17:12:42.927Z,37.50
2019-02-28T17:14:51.620Z,35.67
2019-02-28T17:17:04.819Z,56.03
2019-02-28T17:19:13.021Z,40.43
2019-02-28T17:21:21.158Z,42.80
2019-02-28T17:23:29.293Z,47.40
2019-02-28T17:25:37.559Z,41.27
2019-02-28T17:27:57.025Z,46.10
2019-02-28T17:30:17.104Z,36.07
2019-02-28T17:32:28.000Z,37.73
2019-02-28T17:34:36.799Z,41.07
2019-02-28T17:36:47.674Z,44.33
2019-02-28T17:38:54.817Z,39.77
2019-02-28T17:41:02.808Z,48.67
2019-02-28T17:43:10.702Z,36.83
2019-02-28T17:45:26.848Z,41.80
2019-02-28T17:48:34.974Z,35.17
2019-02-28T17:51:27.406Z,35.90
2019-02-28T17:54:09.349Z,38.17
2019-02-28T17:57:10.673Z,39.67
2019-02-28T18:00:33.491Z,37.70
2019-02-28T18:03:18.469Z,40.50
2019-02-28T18:06:24.824Z,31.70
2019-02-28T18:09:32.218Z,36.23
2019-02-28T18:12:54.815Z,35.30
2019-02-28T18:15:42.131Z,32.97
2019-02-28T18:18:51.718Z,34.17
2019-02-28T18:21:56.065Z,29.83
2019-02-28T18:25:22.242Z,32.07
2019-02-28T18:28:32.633Z,32.33
2019-02-28T18:31:19.088Z,32.33
2019-02-28T18:33:28.015Z,35.53
2019-02-28T18:35:36.498Z,35.27
2019-02-28T18:37:45.586Z,31.00
2019-02-28T18:39:55.393Z,49.70
2019-02-28T18:42:03.439Z,42.70
2019-02-28T18:44:11.692Z,31.73
2019-02-28T18:46:19.705Z,41.57
2019-02-28T18:48:28.370Z,45.77
2019-02-28T18:50:38.265Z,42.43
2019-02-28T18:52:47.221Z,38.13
2019-02-28T18:55:05.966Z,33.73
2019-02-28T18:57:09.775Z,30.40
2019-02-28T18:59:19.371Z,46.87
2019-02-28T19:01:29.017Z,31.03
2019-02-28T19:03:37.297Z,60.23
2019-02-28T19:05:50.428Z,48.17
2019-02-28T19:07:56.150Z,28.00
2019-02-28T19:10:05.646Z,27.97
2019-02-28T19:12:14.170Z,29.40
2019-02-28T19:14:24.304Z,25.33
2019-02-28T19:16:32.521Z,26.53
2019-02-28T19:18:40.811Z,26.00
2019-02-28T19:20:49.766Z,25.50
2019-02-28T19:22:59.051Z,24.47
2019-02-28T19:25:14.916Z,24.43
2019-02-28T19:27:17.072Z,26.00
2019-02-28T19:29:45.710Z,25.20
2019-02-28T19:31:56.583Z,25.07
2019-02-28T19:34:06.024Z,25.63
2019-02-28T19:36:14.326Z,26.17
2019-02-28T19:38:24.332Z,25.07
2019-02-28T19:40:32.300Z,22.90
2019-02-28T19:42:40.602Z,24.13
2019-02-28T19:44:48.723Z,30.07
2019-02-28T19:46:56.665Z,23.73
2019-02-28T19:49:05.363Z,24.33
2019-02-28T19:51:14.219Z,26.37
2019-02-28T19:53:22.835Z,22.87
2019-02-28T19:55:31.066Z,21.23
2019-02-28T19:57:39.417Z,21.80
2019-02-28T19:59:47.609Z,22.83
2019-02-28T20:01:55.675Z,27.07
2019-02-28T20:04:03.576Z,26.10
2019-02-28T20:06:29.438Z,22.90
2019-02-28T20:08:37.469Z,19.80
2019-02-28T20:10:47.113Z,14.97
2019-02-28T20:12:55.834Z,11.43
2019-02-28T20:15:04.024Z,9.37
2019-02-28T20:17:13.113Z,8.93
2019-02-28T20:19:21.604Z,8.40
2019-02-28T20:21:30.355Z,8.90
2019-02-28T20:23:39.032Z,8.10
2019-02-28T20:25:50.076Z,9.17
2019-02-28T20:27:58.207Z,9.80
2019-02-28T20:30:07.040Z,13.50
2019-02-28T20:32:15.113Z,90.20
2019-02-28T20:34:23.296Z,208.37
2019-02-28T20:36:31.278Z,83.87
2019-02-28T20:38:39.256Z,14.23
2019-02-28T20:40:47.277Z,7.40
2019-02-28T20:42:55.498Z,6.20
2019-02-28T20:45:03.579Z,6.40
2019-02-28T20:47:11.446Z,5.63
2019-02-28T20:49:19.668Z,4.83
2019-02-28T20:51:28.101Z,4.30
2019-02-28T20:53:35.991Z,4.87
2019-02-28T20:55:44.381Z,4.57
2019-02-28T20:57:52.195Z,3.47
2019-02-28T21:00:00.472Z,3.70
2019-02-28T21:02:08.468Z,3.37
2019-02-28T21:04:16.562Z,3.30
2019-02-28T21:06:24.551Z,3.30
2019-02-28T21:08:32.535Z,3.90
2019-02-28T21:10:48.138Z,3.47
2019-02-28T21:12:57.920Z,5.17
2019-02-28T21:15:10.561Z,6.17
2019-02-28T21:17:33.674Z,3.70
2019-02-28T21:19:41.356Z,4.77
2019-02-28T21:21:50.804Z,5.20
2019-02-28T21:24:00.776Z,4.60
2019-02-28T21:26:10.927Z,3.80
2019-02-28T21:28:18.717Z,5.13
2019-02-28T21:30:26.849Z,4.77
2019-02-28T21:32:34.683Z,4.03
2019-02-28T21:34:42.625Z,4.17
2019-02-28T21:36:50.590Z,6.87
2019-02-28T21:38:58.430Z,12.97
2019-02-28T21:41:06.550Z,12.33
2019-02-28T21:43:14.451Z,12.70
2019-02-28T21:45:22.407Z,12.77
2019-02-28T21:47:30.119Z,14.53
2019-02-28T21:49:37.879Z,14.27
2019-02-28T21:51:45.476Z,10.93
2019-02-28T21:53:53.291Z,11.43
2019-02-28T21:56:01.121Z,11.87
2019-02-28T21:58:08.924Z,19.33
2019-02-28T22:00:22.801Z,24.77
2019-02-28T22:02:30.760Z,27.37
2019-02-28T22:04:38.619Z,25.27
2019-02-28T22:06:46.247Z,23.93
2019-02-28T22:08:53.923Z,21.43
2019-02-28T22:11:02.707Z,24.50
2019-02-28T22:13:10.384Z,26.90
2019-02-28T22:15:19.076Z,25.00
2019-02-28T22:17:26.776Z,28.63
2019-02-28T22:19:34.266Z,33.03
2019-02-28T22:21:42.043Z,26.43
2019-02-28T22:23:49.732Z,26.27
2019-02-28T22:25:57.670Z,28.90
2019-02-28T22:28:05.557Z,33.57
2019-02-28T22:30:51.005Z,33.10
2019-02-28T22:33:00.314Z,31.83
2019-02-28T22:35:17.090Z,32.90
2019-02-28T22:37:24.944Z,28.57
2019-02-28T22:39:32.821Z,28.03
2019-02-28T22:41:40.793Z,28.47
2019-02-28T22:43:48.494Z,27.27
2019-02-28T22:45:56.760Z,27.30
2019-02-28T22:48:04.771Z,26.17
2019-02-28T22:50:12.576Z,26.17
2019-02-28T22:52:20.370Z,27.27
2019-02-28T22:54:28.091Z,29.67
2019-02-28T22:56:36.138Z,33.17
2019-02-28T22:58:44.127Z,28.93
2019-02-28T23:01:09.432Z,29.03
2019-02-28T23:03:17.119Z,27.07
2019-02-28T23:05:25.039Z,26.70
2019-02-28T23:07:32.727Z,28.60
2019-02-28T23:09:40.483Z,29.83
2019-02-28T23:11:48.069Z,40.80
2019-02-28T23:13:55.841Z,37.83
2019-02-28T23:16:03.740Z,32.97
2019-02-28T23:18:11.596Z,30.83
2019-02-28T23:20:19.322Z,32.27
2019-02-28T23:22:33.512Z,30.53
2019-02-28T23:24:41.232Z,30.13
2019-02-28T23:27:19.503Z,31.13
2019-02-28T23:29:29.738Z,29.40
2019-02-28T23:32:30.673Z,30.13
2019-02-28T23:34:51.413Z,31.57
2019-02-28T23:36:59.007Z,33.07
2019-02-28T23:39:08.989Z,30.67
2019-02-28T23:41:16.741Z,32.67
2019-02-28T23:43:24.542Z,31.40
2019-02-28T23:45:32.289Z,31.27
2019-02-28T23:47:40.063Z,31.57
2019-02-28T23:49:47.727Z,29.70
2019-02-28T23:51:55.487Z,30.57
2019-02-28T23:54:02.885Z,31.10
2019-02-28T23:56:10.732Z,31.23
2019-02-28T23:58:18.406Z,29.90
